Sacramento, California
Traffic Map
Current Weather Conditions
Sacramento, California
Clear
Clear
29°
Feels Like: 29°
Wind Chill: 29° Ceiling: Unl
Heat Index: 29° Visibility: 10mi
Dew Point: 13° Wind: 10mph
Humidity: 38% Direction: 180° (S)
Pressure: 29.82in Gusts: 0mph
Raw Report DataKSAC 222253Z AUTO 18009KT 10SM CLR 29/13 A2982 RMK AO2 SLP096 T02890133 TSNO
Traffic Incident Summary
Active as of:
Severity:
Category:
InformationThere was an issue retrieving the traffic information for this location. Please try a different location or try again shortly.
Advertisements
Track Severe Weather on mobile